sensor_id;sensor_type;location;lat;lon;timestamp;P1;durP1;ratioP1;P2;durP2;ratioP2
177;SDS011;77;48.792;9.032;2022-12-08T00:01:15;17.83;;;10.60;;
177;SDS011;77;48.792;9.032;2022-12-08T00:03:40;19.43;;;11.43;;
177;SDS011;77;48.792;9.032;2022-12-08T00:06:07;17.90;;;10.80;;
177;SDS011;77;48.792;9.032;2022-12-08T00:08:37;18.70;;;11.70;;
177;SDS011;77;48.792;9.032;2022-12-08T00:11:02;17.57;;;11.07;;
177;SDS011;77;48.792;9.032;2022-12-08T00:13:29;18.40;;;10.93;;
177;SDS011;77;48.792;9.032;2022-12-08T00:15:58;17.57;;;10.57;;
177;SDS011;77;48.792;9.032;2022-12-08T00:18:23;19.40;;;11.30;;
177;SDS011;77;48.792;9.032;2022-12-08T00:20:53;18.07;;;11.30;;
177;SDS011;77;48.792;9.032;2022-12-08T00:23:18;21.07;;;11.30;;
177;SDS011;77;48.792;9.032;2022-12-08T00:25:43;19.20;;;10.93;;
177;SDS011;77;48.792;9.032;2022-12-08T00:28:09;17.53;;;10.80;;
177;SDS011;77;48.792;9.032;2022-12-08T00:30:36;16.20;;;10.50;;
177;SDS011;77;48.792;9.032;2022-12-08T00:33:03;18.80;;;11.07;;
177;SDS011;77;48.792;9.032;2022-12-08T00:35:28;17.67;;;10.80;;
177;SDS011;77;48.792;9.032;2022-12-08T00:37:53;19.27;;;10.90;;
177;SDS011;77;48.792;9.032;2022-12-08T00:40:18;19.43;;;10.40;;
177;SDS011;77;48.792;9.032;2022-12-08T00:42:44;18.60;;;10.67;;
177;SDS011;77;48.792;9.032;2022-12-08T00:45:09;19.53;;;10.23;;
177;SDS011;77;48.792;9.032;2022-12-08T00:47:36;17.67;;;11.30;;
177;SDS011;77;48.792;9.032;2022-12-08T00:50:01;19.33;;;12.00;;
177;SDS011;77;48.792;9.032;2022-12-08T00:52:26;16.70;;;10.43;;
177;SDS011;77;48.792;9.032;2022-12-08T00:54:52;16.80;;;10.73;;
177;SDS011;77;48.792;9.032;2022-12-08T00:57:17;18.50;;;10.73;;
177;SDS011;77;48.792;9.032;2022-12-08T00:59:42;15.97;;;10.37;;
177;SDS011;77;48.792;9.032;2022-12-08T01:02:07;18.57;;;10.50;;
177;SDS011;77;48.792;9.032;2022-12-08T01:04:34;18.27;;;11.30;;
177;SDS011;77;48.792;9.032;2022-12-08T01:06:59;21.40;;;11.60;;
177;SDS011;77;48.792;9.032;2022-12-08T01:09:24;18.40;;;10.67;;
177;SDS011;77;48.792;9.032;2022-12-08T01:11:50;16.60;;;10.60;;
177;SDS011;77;48.792;9.032;2022-12-08T01:14:15;16.80;;;10.43;;
177;SDS011;77;48.792;9.032;2022-12-08T01:16:40;18.90;;;10.87;;
177;SDS011;77;48.792;9.032;2022-12-08T01:19:06;15.97;;;10.37;;
177;SDS011;77;48.792;9.032;2022-12-08T01:21:33;18.10;;;10.20;;
177;SDS011;77;48.792;9.032;2022-12-08T01:23:58;19.07;;;11.00;;
177;SDS011;77;48.792;9.032;2022-12-08T01:26:23;17.63;;;10.47;;
177;SDS011;77;48.792;9.032;2022-12-08T01:28:49;17.90;;;10.53;;
177;SDS011;77;48.792;9.032;2022-12-08T01:31:16;17.43;;;10.40;;
177;SDS011;77;48.792;9.032;2022-12-08T01:33:41;17.63;;;10.93;;
177;SDS011;77;48.792;9.032;2022-12-08T01:36:07;17.70;;;10.37;;
177;SDS011;77;48.792;9.032;2022-12-08T01:38:34;17.57;;;10.70;;
177;SDS011;77;48.792;9.032;2022-12-08T01:40:59;16.23;;;10.63;;
177;SDS011;77;48.792;9.032;2022-12-08T01:43:24;18.90;;;11.10;;
177;SDS011;77;48.792;9.032;2022-12-08T01:45:49;15.90;;;9.80;;
177;SDS011;77;48.792;9.032;2022-12-08T01:48:15;14.77;;;9.77;;
177;SDS011;77;48.792;9.032;2022-12-08T01:50:42;16.67;;;10.30;;
177;SDS011;77;48.792;9.032;2022-12-08T01:53:08;17.30;;;10.30;;
177;SDS011;77;48.792;9.032;2022-12-08T01:55:37;17.60;;;10.80;;
177;SDS011;77;48.792;9.032;2022-12-08T01:58:05;18.27;;;10.40;;
177;SDS011;77;48.792;9.032;2022-12-08T02:00:32;18.63;;;10.60;;
177;SDS011;77;48.792;9.032;2022-12-08T02:02:57;20.33;;;11.73;;
177;SDS011;77;48.792;9.032;2022-12-08T02:05:23;19.10;;;11.10;;
177;SDS011;77;48.792;9.032;2022-12-08T02:07:49;19.07;;;11.37;;
177;SDS011;77;48.792;9.032;2022-12-08T02:10:16;17.53;;;10.23;;
177;SDS011;77;48.792;9.032;2022-12-08T02:12:43;21.00;;;10.87;;
177;SDS011;77;48.792;9.032;2022-12-08T02:15:08;17.30;;;10.80;;
177;SDS011;77;48.792;9.032;2022-12-08T02:17:37;16.80;;;10.90;;
177;SDS011;77;48.792;9.032;2022-12-08T02:22:51;18.33;;;10.90;;
177;SDS011;77;48.792;9.032;2022-12-08T02:25:19;18.20;;;11.10;;
177;SDS011;77;48.792;9.032;2022-12-08T02:27:49;18.90;;;11.63;;
177;SDS011;77;48.792;9.032;2022-12-08T02:30:23;18.73;;;10.40;;
177;SDS011;77;48.792;9.032;2022-12-08T02:33:04;15.87;;;10.30;;
177;SDS011;77;48.792;9.032;2022-12-08T02:35:35;17.07;;;10.13;;
177;SDS011;77;48.792;9.032;2022-12-08T02:38:04;16.27;;;9.80;;
177;SDS011;77;48.792;9.032;2022-12-08T02:40:32;15.53;;;9.77;;
177;SDS011;77;48.792;9.032;2022-12-08T02:43:00;16.70;;;9.70;;
177;SDS011;77;48.792;9.032;2022-12-08T02:45:28;16.00;;;9.53;;
177;SDS011;77;48.792;9.032;2022-12-08T02:47:54;17.73;;;9.60;;
177;SDS011;77;48.792;9.032;2022-12-08T02:50:21;16.00;;;9.00;;
177;SDS011;77;48.792;9.032;2022-12-08T02:52:48;13.33;;;8.47;;
177;SDS011;77;48.792;9.032;2022-12-08T02:55:16;15.50;;;9.43;;
177;SDS011;77;48.792;9.032;2022-12-08T02:57:44;15.63;;;9.33;;
177;SDS011;77;48.792;9.032;2022-12-08T03:00:13;17.10;;;9.20;;
177;SDS011;77;48.792;9.032;2022-12-08T03:02:44;14.10;;;9.00;;
177;SDS011;77;48.792;9.032;2022-12-08T03:05:13;18.00;;;9.80;;
177;SDS011;77;48.792;9.032;2022-12-08T03:07:42;15.30;;;9.40;;
177;SDS011;77;48.792;9.032;2022-12-08T03:10:11;16.83;;;10.20;;
177;SDS011;77;48.792;9.032;2022-12-08T03:12:39;15.43;;;9.17;;
177;SDS011;77;48.792;9.032;2022-12-08T03:15:07;17.43;;;9.70;;
177;SDS011;77;48.792;9.032;2022-12-08T03:17:33;14.97;;;9.87;;
177;SDS011;77;48.792;9.032;2022-12-08T03:20:00;17.13;;;10.00;;
177;SDS011;77;48.792;9.032;2022-12-08T03:22:27;16.47;;;9.10;;
177;SDS011;77;48.792;9.032;2022-12-08T03:24:53;16.60;;;10.17;;
177;SDS011;77;48.792;9.032;2022-12-08T03:27:20;16.50;;;9.77;;
177;SDS011;77;48.792;9.032;2022-12-08T03:29:47;15.67;;;9.40;;
177;SDS011;77;48.792;9.032;2022-12-08T03:32:15;16.70;;;10.40;;
177;SDS011;77;48.792;9.032;2022-12-08T03:34:44;18.67;;;10.20;;
177;SDS011;77;48.792;9.032;2022-12-08T03:37:11;16.30;;;9.73;;
177;SDS011;77;48.792;9.032;2022-12-08T03:39:36;17.57;;;9.60;;
177;SDS011;77;48.792;9.032;2022-12-08T03:42:01;16.70;;;9.70;;
177;SDS011;77;48.792;9.032;2022-12-08T03:44:28;16.30;;;9.30;;
177;SDS011;77;48.792;9.032;2022-12-08T03:46:53;15.33;;;9.33;;
177;SDS011;77;48.792;9.032;2022-12-08T03:49:18;17.30;;;9.60;;
177;SDS011;77;48.792;9.032;2022-12-08T03:51:43;15.43;;;9.30;;
177;SDS011;77;48.792;9.032;2022-12-08T03:54:09;16.20;;;9.10;;
177;SDS011;77;48.792;9.032;2022-12-08T03:56:35;14.13;;;8.50;;
177;SDS011;77;48.792;9.032;2022-12-08T03:59:00;15.77;;;9.40;;
177;SDS011;77;48.792;9.032;2022-12-08T04:01:27;14.73;;;9.40;;
177;SDS011;77;48.792;9.032;2022-12-08T04:03:53;15.83;;;9.00;;
177;SDS011;77;48.792;9.032;2022-12-08T04:06:18;15.20;;;9.23;;
177;SDS011;77;48.792;9.032;2022-12-08T04:08:44;14.43;;;9.50;;
177;SDS011;77;48.792;9.032;2022-12-08T04:11:09;14.47;;;8.73;;
177;SDS011;77;48.792;9.032;2022-12-08T04:13:34;13.27;;;8.50;;
177;SDS011;77;48.792;9.032;2022-12-08T04:16:00;15.60;;;8.90;;
177;SDS011;77;48.792;9.032;2022-12-08T04:18:27;15.40;;;8.43;;
177;SDS011;77;48.792;9.032;2022-12-08T04:20:52;14.80;;;8.73;;
177;SDS011;77;48.792;9.032;2022-12-08T04:23:17;14.17;;;8.73;;
177;SDS011;77;48.792;9.032;2022-12-08T04:25:42;16.00;;;8.57;;
177;SDS011;77;48.792;9.032;2022-12-08T04:28:08;14.97;;;8.80;;
177;SDS011;77;48.792;9.032;2022-12-08T04:30:33;13.73;;;8.93;;
177;SDS011;77;48.792;9.032;2022-12-08T04:32:58;13.90;;;9.10;;
177;SDS011;77;48.792;9.032;2022-12-08T04:35:25;15.70;;;9.73;;
177;SDS011;77;48.792;9.032;2022-12-08T04:37:50;14.87;;;8.53;;
177;SDS011;77;48.792;9.032;2022-12-08T04:40:15;14.20;;;8.70;;
177;SDS011;77;48.792;9.032;2022-12-08T04:42:40;14.50;;;8.90;;
177;SDS011;77;48.792;9.032;2022-12-08T04:45:06;13.97;;;8.40;;
177;SDS011;77;48.792;9.032;2022-12-08T04:47:31;16.57;;;8.77;;
177;SDS011;77;48.792;9.032;2022-12-08T04:49:57;16.77;;;8.30;;
177;SDS011;77;48.792;9.032;2022-12-08T04:52:23;14.07;;;8.37;;
177;SDS011;77;48.792;9.032;2022-12-08T04:54:49;13.53;;;8.13;;
177;SDS011;77;48.792;9.032;2022-12-08T04:57:14;12.70;;;8.17;;
177;SDS011;77;48.792;9.032;2022-12-08T04:59:39;12.30;;;7.90;;
177;SDS011;77;48.792;9.032;2022-12-08T05:02:05;12.80;;;7.60;;
177;SDS011;77;48.792;9.032;2022-12-08T05:04:30;14.13;;;8.53;;
177;SDS011;77;48.792;9.032;2022-12-08T05:06:55;15.10;;;9.30;;
177;SDS011;77;48.792;9.032;2022-12-08T05:09:22;14.23;;;8.87;;
177;SDS011;77;48.792;9.032;2022-12-08T05:11:47;16.20;;;9.20;;
177;SDS011;77;48.792;9.032;2022-12-08T05:14:13;14.50;;;8.80;;
177;SDS011;77;48.792;9.032;2022-12-08T05:16:39;13.67;;;8.73;;
177;SDS011;77;48.792;9.032;2022-12-08T05:19:04;13.67;;;8.10;;
177;SDS011;77;48.792;9.032;2022-12-08T05:21:29;14.53;;;8.40;;
177;SDS011;77;48.792;9.032;2022-12-08T05:23:54;13.40;;;8.20;;
177;SDS011;77;48.792;9.032;2022-12-08T05:26:21;14.10;;;8.27;;
177;SDS011;77;48.792;9.032;2022-12-08T05:28:46;12.90;;;7.93;;
177;SDS011;77;48.792;9.032;2022-12-08T05:31:12;14.57;;;8.73;;
177;SDS011;77;48.792;9.032;2022-12-08T05:33:38;15.00;;;9.07;;
177;SDS011;77;48.792;9.032;2022-12-08T05:36:03;13.00;;;8.20;;
177;SDS011;77;48.792;9.032;2022-12-08T05:38:28;12.50;;;7.70;;
177;SDS011;77;48.792;9.032;2022-12-08T05:40:54;13.53;;;8.47;;
177;SDS011;77;48.792;9.032;2022-12-08T05:43:20;13.43;;;8.00;;
177;SDS011;77;48.792;9.032;2022-12-08T05:45:46;13.80;;;8.50;;
177;SDS011;77;48.792;9.032;2022-12-08T05:48:11;13.50;;;7.77;;
177;SDS011;77;48.792;9.032;2022-12-08T05:50:36;13.00;;;7.60;;
177;SDS011;77;48.792;9.032;2022-12-08T05:53:01;12.70;;;7.67;;
177;SDS011;77;48.792;9.032;2022-12-08T05:55:27;14.30;;;8.17;;
177;SDS011;77;48.792;9.032;2022-12-08T05:57:52;12.23;;;7.70;;
177;SDS011;77;48.792;9.032;2022-12-08T06:00:19;12.07;;;7.47;;
177;SDS011;77;48.792;9.032;2022-12-08T06:02:45;12.37;;;7.60;;
177;SDS011;77;48.792;9.032;2022-12-08T06:05:10;13.50;;;8.17;;
177;SDS011;77;48.792;9.032;2022-12-08T06:07:35;11.83;;;7.47;;
177;SDS011;77;48.792;9.032;2022-12-08T06:10:01;13.37;;;8.10;;
177;SDS011;77;48.792;9.032;2022-12-08T06:12:26;13.97;;;8.40;;
177;SDS011;77;48.792;9.032;2022-12-08T06:14:51;12.73;;;7.93;;
177;SDS011;77;48.792;9.032;2022-12-08T06:17:17;11.40;;;7.27;;
177;SDS011;77;48.792;9.032;2022-12-08T06:19:43;13.27;;;8.20;;
177;SDS011;77;48.792;9.032;2022-12-08T06:22:08;13.47;;;7.90;;
177;SDS011;77;48.792;9.032;2022-12-08T06:24:33;14.77;;;8.07;;
177;SDS011;77;48.792;9.032;2022-12-08T06:26:58;13.20;;;7.60;;
177;SDS011;77;48.792;9.032;2022-12-08T06:29:23;13.00;;;7.50;;
177;SDS011;77;48.792;9.032;2022-12-08T06:31:49;12.93;;;7.50;;
177;SDS011;77;48.792;9.032;2022-12-08T06:34:15;14.67;;;7.70;;
177;SDS011;77;48.792;9.032;2022-12-08T06:36:40;11.47;;;7.17;;
177;SDS011;77;48.792;9.032;2022-12-08T06:39:06;12.43;;;7.13;;
177;SDS011;77;48.792;9.032;2022-12-08T06:41:31;13.07;;;7.47;;
177;SDS011;77;48.792;9.032;2022-12-08T06:43:56;13.00;;;7.50;;
177;SDS011;77;48.792;9.032;2022-12-08T06:46:22;13.07;;;7.80;;
177;SDS011;77;48.792;9.032;2022-12-08T06:48:47;14.20;;;7.93;;
177;SDS011;77;48.792;9.032;2022-12-08T06:51:16;15.17;;;8.00;;
177;SDS011;77;48.792;9.032;2022-12-08T06:53:43;12.40;;;7.40;;
177;SDS011;77;48.792;9.032;2022-12-08T06:56:09;12.10;;;7.13;;
177;SDS011;77;48.792;9.032;2022-12-08T06:58:35;12.87;;;7.07;;
177;SDS011;77;48.792;9.032;2022-12-08T07:01:04;12.87;;;8.03;;
177;SDS011;77;48.792;9.032;2022-12-08T07:03:29;12.20;;;7.57;;
177;SDS011;77;48.792;9.032;2022-12-08T07:05:54;12.33;;;6.93;;
177;SDS011;77;48.792;9.032;2022-12-08T07:08:21;14.43;;;7.70;;
177;SDS011;77;48.792;9.032;2022-12-08T07:10:46;11.07;;;7.35;;
177;SDS011;77;48.792;9.032;2022-12-08T07:13:12;13.00;;;7.70;;
177;SDS011;77;48.792;9.032;2022-12-08T07:15:37;13.33;;;7.27;;
177;SDS011;77;48.792;9.032;2022-12-08T07:18:02;12.80;;;7.47;;
177;SDS011;77;48.792;9.032;2022-12-08T07:20:27;13.67;;;7.60;;
177;SDS011;77;48.792;9.032;2022-12-08T07:22:53;12.93;;;7.17;;
177;SDS011;77;48.792;9.032;2022-12-08T07:25:19;14.13;;;7.80;;
177;SDS011;77;48.792;9.032;2022-12-08T07:27:45;14.40;;;8.30;;
177;SDS011;77;48.792;9.032;2022-12-08T07:30:10;14.40;;;7.57;;
177;SDS011;77;48.792;9.032;2022-12-08T07:32:36;13.77;;;8.43;;
177;SDS011;77;48.792;9.032;2022-12-08T07:35:01;17.00;;;8.00;;
177;SDS011;77;48.792;9.032;2022-12-08T07:37:27;13.43;;;7.63;;
177;SDS011;77;48.792;9.032;2022-12-08T07:39:52;14.03;;;7.70;;
177;SDS011;77;48.792;9.032;2022-12-08T07:42:18;12.50;;;7.57;;
177;SDS011;77;48.792;9.032;2022-12-08T07:44:44;12.90;;;7.17;;
177;SDS011;77;48.792;9.032;2022-12-08T07:47:09;11.43;;;7.27;;
177;SDS011;77;48.792;9.032;2022-12-08T07:49:34;12.07;;;7.07;;
177;SDS011;77;48.792;9.032;2022-12-08T07:51:59;12.03;;;7.60;;
177;SDS011;77;48.792;9.032;2022-12-08T07:54:25;14.17;;;8.17;;
177;SDS011;77;48.792;9.032;2022-12-08T07:56:50;11.97;;;7.63;;
177;SDS011;77;48.792;9.032;2022-12-08T07:59:16;13.50;;;7.20;;
177;SDS011;77;48.792;9.032;2022-12-08T08:01:42;13.20;;;8.07;;
177;SDS011;77;48.792;9.032;2022-12-08T08:04:07;12.40;;;7.40;;
177;SDS011;77;48.792;9.032;2022-12-08T08:06:33;12.43;;;7.77;;
177;SDS011;77;48.792;9.032;2022-12-08T08:08:58;14.10;;;8.00;;
177;SDS011;77;48.792;9.032;2022-12-08T08:11:24;13.30;;;7.47;;
177;SDS011;77;48.792;9.032;2022-12-08T08:13:49;12.00;;;7.47;;
177;SDS011;77;48.792;9.032;2022-12-08T08:16:16;11.10;;;6.90;;
177;SDS011;77;48.792;9.032;2022-12-08T08:18:42;13.40;;;7.30;;
177;SDS011;77;48.792;9.032;2022-12-08T08:21:07;11.37;;;7.10;;
177;SDS011;77;48.792;9.032;2022-12-08T08:23:32;12.17;;;7.30;;
177;SDS011;77;48.792;9.032;2022-12-08T08:25:58;11.47;;;7.50;;
177;SDS011;77;48.792;9.032;2022-12-08T08:28:23;13.00;;;7.30;;
177;SDS011;77;48.792;9.032;2022-12-08T08:30:48;13.57;;;7.80;;
177;SDS011;77;48.792;9.032;2022-12-08T08:33:15;13.30;;;8.37;;
177;SDS011;77;48.792;9.032;2022-12-08T08:35:40;13.57;;;8.00;;
177;SDS011;77;48.792;9.032;2022-12-08T08:38:05;13.07;;;7.63;;
177;SDS011;77;48.792;9.032;2022-12-08T08:40:31;14.60;;;8.30;;
177;SDS011;77;48.792;9.032;2022-12-08T08:42:56;12.67;;;7.87;;
177;SDS011;77;48.792;9.032;2022-12-08T08:45:21;13.10;;;7.73;;
177;SDS011;77;48.792;9.032;2022-12-08T08:47:47;12.97;;;7.73;;
177;SDS011;77;48.792;9.032;2022-12-08T08:50:13;13.07;;;8.20;;
177;SDS011;77;48.792;9.032;2022-12-08T08:52:39;12.93;;;8.37;;
177;SDS011;77;48.792;9.032;2022-12-08T08:55:04;15.00;;;8.83;;
177;SDS011;77;48.792;9.032;2022-12-08T08:57:30;14.33;;;8.53;;
177;SDS011;77;48.792;9.032;2022-12-08T08:59:55;14.53;;;8.63;;
177;SDS011;77;48.792;9.032;2022-12-08T09:02:20;15.53;;;8.50;;
177;SDS011;77;48.792;9.032;2022-12-08T09:04:45;15.50;;;8.70;;
177;SDS011;77;48.792;9.032;2022-12-08T09:07:13;15.53;;;8.83;;
177;SDS011;77;48.792;9.032;2022-12-08T09:09:38;18.33;;;8.70;;
177;SDS011;77;48.792;9.032;2022-12-08T09:12:04;15.20;;;8.60;;
177;SDS011;77;48.792;9.032;2022-12-08T09:14:29;15.83;;;8.67;;
177;SDS011;77;48.792;9.032;2022-12-08T09:16:54;14.50;;;8.57;;
177;SDS011;77;48.792;9.032;2022-12-08T09:19:20;12.80;;;8.07;;
177;SDS011;77;48.792;9.032;2022-12-08T09:21:45;13.03;;;7.73;;
177;SDS011;77;48.792;9.032;2022-12-08T09:24:11;12.27;;;7.63;;
177;SDS011;77;48.792;9.032;2022-12-08T09:26:37;13.90;;;8.30;;
177;SDS011;77;48.792;9.032;2022-12-08T09:29:02;15.97;;;8.57;;
177;SDS011;77;48.792;9.032;2022-12-08T09:31:30;12.70;;;8.03;;
177;SDS011;77;48.792;9.032;2022-12-08T09:33:55;12.67;;;8.17;;
177;SDS011;77;48.792;9.032;2022-12-08T09:36:20;13.83;;;8.37;;
177;SDS011;77;48.792;9.032;2022-12-08T09:38:46;14.20;;;8.60;;
177;SDS011;77;48.792;9.032;2022-12-08T09:41:14;12.10;;;8.17;;
177;SDS011;77;48.792;9.032;2022-12-08T09:43:43;15.50;;;8.70;;
177;SDS011;77;48.792;9.032;2022-12-08T09:46:11;16.73;;;8.17;;
177;SDS011;77;48.792;9.032;2022-12-08T09:48:38;13.77;;;8.40;;
177;SDS011;77;48.792;9.032;2022-12-08T09:51:04;15.87;;;9.00;;
177;SDS011;77;48.792;9.032;2022-12-08T09:53:31;11.70;;;7.80;;
177;SDS011;77;48.792;9.032;2022-12-08T09:55:59;14.43;;;8.70;;
177;SDS011;77;48.792;9.032;2022-12-08T09:58:28;14.03;;;9.20;;
177;SDS011;77;48.792;9.032;2022-12-08T10:00:56;12.83;;;8.50;;
177;SDS011;77;48.792;9.032;2022-12-08T10:03:21;13.90;;;8.87;;
177;SDS011;77;48.792;9.032;2022-12-08T10:05:48;15.30;;;9.10;;
177;SDS011;77;48.792;9.032;2022-12-08T10:08:18;15.57;;;8.70;;
177;SDS011;77;48.792;9.032;2022-12-08T10:10:45;16.70;;;10.00;;
177;SDS011;77;48.792;9.032;2022-12-08T10:13:13;15.67;;;9.03;;
177;SDS011;77;48.792;9.032;2022-12-08T10:15:45;15.60;;;9.20;;
177;SDS011;77;48.792;9.032;2022-12-08T10:18:13;14.97;;;9.50;;
177;SDS011;77;48.792;9.032;2022-12-08T10:20:44;14.03;;;9.10;;
177;SDS011;77;48.792;9.032;2022-12-08T10:23:14;12.60;;;9.00;;
177;SDS011;77;48.792;9.032;2022-12-08T10:25:43;17.83;;;9.23;;
177;SDS011;77;48.792;9.032;2022-12-08T10:28:12;13.70;;;7.90;;
177;SDS011;77;48.792;9.032;2022-12-08T10:30:37;20.67;;;8.20;;
177;SDS011;77;48.792;9.032;2022-12-08T10:33:04;15.40;;;8.47;;
177;SDS011;77;48.792;9.032;2022-12-08T10:35:41;14.20;;;8.20;;
177;SDS011;77;48.792;9.032;2022-12-08T10:38:08;12.00;;;8.20;;
177;SDS011;77;48.792;9.032;2022-12-08T10:40:40;14.40;;;7.83;;
177;SDS011;77;48.792;9.032;2022-12-08T10:43:11;14.33;;;8.63;;
177;SDS011;77;48.792;9.032;2022-12-08T10:45:38;14.73;;;8.67;;
177;SDS011;77;48.792;9.032;2022-12-08T10:48:08;13.47;;;8.47;;
177;SDS011;77;48.792;9.032;2022-12-08T10:50:40;15.13;;;9.20;;
177;SDS011;77;48.792;9.032;2022-12-08T10:53:10;13.67;;;8.50;;
177;SDS011;77;48.792;9.032;2022-12-08T10:55:38;13.93;;;8.47;;
177;SDS011;77;48.792;9.032;2022-12-08T10:58:04;13.10;;;8.40;;
177;SDS011;77;48.792;9.032;2022-12-08T11:00:29;14.00;;;8.30;;
177;SDS011;77;48.792;9.032;2022-12-08T11:02:59;12.37;;;7.53;;
177;SDS011;77;48.792;9.032;2022-12-08T11:05:27;12.03;;;7.63;;
177;SDS011;77;48.792;9.032;2022-12-08T11:07:54;12.80;;;7.87;;
177;SDS011;77;48.792;9.032;2022-12-08T11:10:19;15.00;;;8.13;;
177;SDS011;77;48.792;9.032;2022-12-08T11:12:47;13.77;;;8.43;;
177;SDS011;77;48.792;9.032;2022-12-08T11:15:13;14.80;;;8.37;;
177;SDS011;77;48.792;9.032;2022-12-08T11:17:39;12.20;;;7.40;;
177;SDS011;77;48.792;9.032;2022-12-08T11:20:19;12.17;;;7.83;;
177;SDS011;77;48.792;9.032;2022-12-08T11:22:49;14.33;;;7.70;;
177;SDS011;77;48.792;9.032;2022-12-08T11:25:16;14.07;;;8.30;;
177;SDS011;77;48.792;9.032;2022-12-08T11:27:42;13.37;;;8.17;;
177;SDS011;77;48.792;9.032;2022-12-08T11:30:12;12.43;;;8.20;;
177;SDS011;77;48.792;9.032;2022-12-08T11:32:38;18.43;;;8.97;;
177;SDS011;77;48.792;9.032;2022-12-08T11:35:04;13.77;;;8.60;;
177;SDS011;77;48.792;9.032;2022-12-08T11:37:32;13.30;;;8.47;;
177;SDS011;77;48.792;9.032;2022-12-08T11:40:02;15.57;;;9.20;;
177;SDS011;77;48.792;9.032;2022-12-08T11:42:29;17.17;;;9.10;;
177;SDS011;77;48.792;9.032;2022-12-08T11:44:57;16.63;;;9.13;;
177;SDS011;77;48.792;9.032;2022-12-08T11:47:23;14.63;;;8.67;;
177;SDS011;77;48.792;9.032;2022-12-08T11:49:51;13.50;;;8.53;;
177;SDS011;77;48.792;9.032;2022-12-08T11:52:19;13.60;;;8.80;;
177;SDS011;77;48.792;9.032;2022-12-08T11:54:47;13.50;;;8.80;;
177;SDS011;77;48.792;9.032;2022-12-08T11:57:15;12.80;;;8.43;;
177;SDS011;77;48.792;9.032;2022-12-08T11:59:41;13.50;;;8.80;;
177;SDS011;77;48.792;9.032;2022-12-08T12:02:12;14.57;;;8.73;;
177;SDS011;77;48.792;9.032;2022-12-08T12:04:39;15.90;;;9.30;;
177;SDS011;77;48.792;9.032;2022-12-08T12:07:16;13.93;;;8.53;;
177;SDS011;77;48.792;9.032;2022-12-08T12:09:50;15.60;;;9.93;;
177;SDS011;77;48.792;9.032;2022-12-08T12:12:21;15.33;;;8.87;;
177;SDS011;77;48.792;9.032;2022-12-08T12:17:36;16.93;;;9.20;;
177;SDS011;77;48.792;9.032;2022-12-08T12:20:08;13.97;;;8.97;;
177;SDS011;77;48.792;9.032;2022-12-08T12:22:34;14.67;;;9.30;;
177;SDS011;77;48.792;9.032;2022-12-08T12:24:59;15.57;;;9.30;;
177;SDS011;77;48.792;9.032;2022-12-08T12:27:28;16.37;;;9.10;;
177;SDS011;77;48.792;9.032;2022-12-08T12:29:56;13.87;;;9.00;;
177;SDS011;77;48.792;9.032;2022-12-08T12:32:22;16.40;;;9.73;;
177;SDS011;77;48.792;9.032;2022-12-08T12:34:49;14.10;;;9.07;;
177;SDS011;77;48.792;9.032;2022-12-08T12:37:15;15.30;;;9.50;;
177;SDS011;77;48.792;9.032;2022-12-08T12:39:46;17.73;;;8.33;;
177;SDS011;77;48.792;9.032;2022-12-08T12:48:11;18.40;;;9.10;;
177;SDS011;77;48.792;9.032;2022-12-08T12:50:40;14.70;;;9.00;;
177;SDS011;77;48.792;9.032;2022-12-08T12:53:05;18.53;;;9.57;;
177;SDS011;77;48.792;9.032;2022-12-08T12:55:53;14.93;;;8.90;;
177;SDS011;77;48.792;9.032;2022-12-08T12:58:19;16.40;;;8.40;;
177;SDS011;77;48.792;9.032;2022-12-08T13:00:45;16.20;;;8.70;;
177;SDS011;77;48.792;9.032;2022-12-08T13:03:12;13.23;;;8.40;;
177;SDS011;77;48.792;9.032;2022-12-08T13:05:44;14.10;;;8.63;;
177;SDS011;77;48.792;9.032;2022-12-08T13:08:15;14.03;;;9.00;;
177;SDS011;77;48.792;9.032;2022-12-08T13:10:46;13.47;;;8.83;;
177;SDS011;77;48.792;9.032;2022-12-08T13:13:17;12.80;;;8.60;;
177;SDS011;77;48.792;9.032;2022-12-08T13:15:47;13.83;;;8.70;;
177;SDS011;77;48.792;9.032;2022-12-08T13:18:15;13.60;;;8.57;;
177;SDS011;77;48.792;9.032;2022-12-08T13:20:45;13.53;;;9.00;;
177;SDS011;77;48.792;9.032;2022-12-08T13:23:27;15.60;;;9.00;;
177;SDS011;77;48.792;9.032;2022-12-08T13:31:35;15.93;;;8.60;;
177;SDS011;77;48.792;9.032;2022-12-08T13:34:02;13.50;;;8.50;;
177;SDS011;77;48.792;9.032;2022-12-08T13:36:30;17.70;;;8.93;;
177;SDS011;77;48.792;9.032;2022-12-08T13:38:57;16.70;;;8.90;;
177;SDS011;77;48.792;9.032;2022-12-08T13:41:25;13.17;;;8.23;;
177;SDS011;77;48.792;9.032;2022-12-08T13:43:54;15.77;;;8.50;;
177;SDS011;77;48.792;9.032;2022-12-08T13:46:27;12.70;;;8.00;;
177;SDS011;77;48.792;9.032;2022-12-08T13:48:54;14.40;;;8.13;;
177;SDS011;77;48.792;9.032;2022-12-08T13:51:21;11.77;;;7.60;;
177;SDS011;77;48.792;9.032;2022-12-08T13:53:50;11.80;;;7.63;;
177;SDS011;77;48.792;9.032;2022-12-08T13:56:17;11.70;;;7.90;;
177;SDS011;77;48.792;9.032;2022-12-08T13:58:43;12.30;;;8.00;;
177;SDS011;77;48.792;9.032;2022-12-08T14:01:10;11.83;;;7.67;;
177;SDS011;77;48.792;9.032;2022-12-08T14:03:43;14.80;;;8.13;;
177;SDS011;77;48.792;9.032;2022-12-08T14:06:13;11.83;;;7.13;;
177;SDS011;77;48.792;9.032;2022-12-08T14:08:38;11.93;;;7.13;;
177;SDS011;77;48.792;9.032;2022-12-08T14:11:03;12.73;;;7.07;;
177;SDS011;77;48.792;9.032;2022-12-08T14:13:30;10.80;;;7.00;;
177;SDS011;77;48.792;9.032;2022-12-08T14:15:55;12.17;;;7.30;;
177;SDS011;77;48.792;9.032;2022-12-08T14:18:22;12.23;;;7.43;;
177;SDS011;77;48.792;9.032;2022-12-08T14:20:57;15.50;;;8.47;;
177;SDS011;77;48.792;9.032;2022-12-08T14:23:24;13.83;;;8.70;;
177;SDS011;77;48.792;9.032;2022-12-08T14:25:49;15.63;;;8.67;;
177;SDS011;77;48.792;9.032;2022-12-08T14:28:15;13.30;;;8.43;;
177;SDS011;77;48.792;9.032;2022-12-08T14:30:40;14.50;;;8.70;;
177;SDS011;77;48.792;9.032;2022-12-08T14:33:08;19.23;;;8.70;;
177;SDS011;77;48.792;9.032;2022-12-08T14:35:38;11.20;;;7.20;;
177;SDS011;77;48.792;9.032;2022-12-08T14:38:03;14.60;;;8.03;;
177;SDS011;77;48.792;9.032;2022-12-08T14:40:31;16.40;;;9.00;;
177;SDS011;77;48.792;9.032;2022-12-08T14:43:04;14.77;;;8.67;;
177;SDS011;77;48.792;9.032;2022-12-08T14:45:30;14.63;;;9.10;;
177;SDS011;77;48.792;9.032;2022-12-08T14:47:55;13.40;;;8.87;;
177;SDS011;77;48.792;9.032;2022-12-08T14:50:37;13.40;;;8.50;;
177;SDS011;77;48.792;9.032;2022-12-08T14:53:02;15.00;;;8.97;;
177;SDS011;77;48.792;9.032;2022-12-08T14:55:28;15.63;;;8.90;;
177;SDS011;77;48.792;9.032;2022-12-08T14:57:59;19.10;;;9.13;;
177;SDS011;77;48.792;9.032;2022-12-08T15:00:25;15.47;;;8.80;;
177;SDS011;77;48.792;9.032;2022-12-08T15:02:51;17.13;;;9.37;;
177;SDS011;77;48.792;9.032;2022-12-08T15:05:17;14.17;;;8.40;;
177;SDS011;77;48.792;9.032;2022-12-08T15:07:47;15.47;;;9.47;;
177;SDS011;77;48.792;9.032;2022-12-08T15:10:19;14.70;;;9.63;;
177;SDS011;77;48.792;9.032;2022-12-08T15:13:04;14.40;;;9.13;;
177;SDS011;77;48.792;9.032;2022-12-08T15:15:31;12.60;;;7.43;;
177;SDS011;77;48.792;9.032;2022-12-08T15:17:57;15.10;;;9.40;;
177;SDS011;77;48.792;9.032;2022-12-08T15:20:26;16.60;;;10.40;;
177;SDS011;77;48.792;9.032;2022-12-08T15:22:51;18.57;;;10.00;;
177;SDS011;77;48.792;9.032;2022-12-08T15:25:17;15.23;;;9.37;;
177;SDS011;77;48.792;9.032;2022-12-08T15:27:42;14.47;;;8.87;;
177;SDS011;77;48.792;9.032;2022-12-08T15:30:12;19.73;;;11.30;;
177;SDS011;77;48.792;9.032;2022-12-08T15:32:37;18.57;;;10.73;;
177;SDS011;77;48.792;9.032;2022-12-08T15:35:02;17.53;;;10.60;;
177;SDS011;77;48.792;9.032;2022-12-08T15:37:27;15.97;;;9.47;;
177;SDS011;77;48.792;9.032;2022-12-08T15:39:53;20.00;;;9.40;;
177;SDS011;77;48.792;9.032;2022-12-08T15:42:18;16.10;;;9.20;;
177;SDS011;77;48.792;9.032;2022-12-08T15:44:43;18.73;;;9.97;;
177;SDS011;77;48.792;9.032;2022-12-08T15:47:12;18.53;;;10.73;;
177;SDS011;77;48.792;9.032;2022-12-08T15:49:38;18.37;;;9.93;;
177;SDS011;77;48.792;9.032;2022-12-08T15:52:05;14.80;;;8.67;;
177;SDS011;77;48.792;9.032;2022-12-08T15:54:30;13.97;;;8.93;;
177;SDS011;77;48.792;9.032;2022-12-08T15:56:55;17.17;;;8.80;;